sensor_id;sensor_type;location;lat;lon;timestamp;P1;durP1;ratioP1;P2;durP2;ratioP2
48805;SDS011;34625;47.176;27.548;2022-08-03T15:10:39;3.20;;;1.63;;
48805;SDS011;34625;47.176;27.548;2022-08-03T15:13:05;2.03;;;1.77;;
48805;SDS011;34625;47.176;27.548;2022-08-03T15:15:52;1.92;;;1.70;;
48805;SDS011;34625;47.176;27.548;2022-08-03T15:18:18;1.90;;;1.80;;
48805;SDS011;34625;47.176;27.548;2022-08-03T15:20:44;4.38;;;2.10;;
48805;SDS011;34625;47.176;27.548;2022-08-03T15:23:13;6.13;;;2.40;;
48805;SDS011;34625;47.176;27.548;2022-08-03T15:25:40;1.83;;;1.73;;
48805;SDS011;34625;47.176;27.548;2022-08-03T15:28:07;2.83;;;1.92;;
48805;SDS011;34625;47.176;27.548;2022-08-03T15:30:33;6.70;;;4.20;;
48805;SDS011;34625;47.176;27.548;2022-08-03T15:33:01;2.05;;;1.80;;
48805;SDS011;34625;47.176;27.548;2022-08-03T15:35:27;1.73;;;1.58;;
48805;SDS011;34625;47.176;27.548;2022-08-03T15:37:53;2.60;;;1.95;;
48805;SDS011;34625;47.176;27.548;2022-08-03T15:40:19;1.90;;;1.40;;
48805;SDS011;34625;47.176;27.548;2022-08-03T15:42:48;4.25;;;1.70;;
48805;SDS011;34625;47.176;27.548;2022-08-03T15:45:14;4.32;;;1.50;;
48805;SDS011;34625;47.176;27.548;2022-08-03T15:47:40;1.60;;;1.50;;
48805;SDS011;34625;47.176;27.548;2022-08-03T15:50:07;1.45;;;1.35;;
48805;SDS011;34625;47.176;27.548;2022-08-03T15:52:33;1.58;;;1.48;;
48805;SDS011;34625;47.176;27.548;2022-08-03T15:54:59;4.15;;;1.50;;
48805;SDS011;34625;47.176;27.548;2022-08-03T15:57:25;2.30;;;1.73;;
48805;SDS011;34625;47.176;27.548;2022-08-03T15:59:51;3.38;;;1.50;;
48805;SDS011;34625;47.176;27.548;2022-08-03T16:02:26;1.60;;;1.50;;
48805;SDS011;34625;47.176;27.548;2022-08-03T16:04:52;3.63;;;1.40;;
48805;SDS011;34625;47.176;27.548;2022-08-03T16:07:18;1.38;;;1.27;;
48805;SDS011;34625;47.176;27.548;2022-08-03T16:10:04;1.67;;;1.58;;
48805;SDS011;34625;47.176;27.548;2022-08-03T16:12:31;2.45;;;1.60;;
48805;SDS011;34625;47.176;27.548;2022-08-03T16:14:57;1.98;;;1.40;;
48805;SDS011;34625;47.176;27.548;2022-08-03T16:17:23;1.58;;;1.48;;
48805;SDS011;34625;47.176;27.548;2022-08-03T16:19:53;1.52;;;1.42;;
48805;SDS011;34625;47.176;27.548;2022-08-03T16:22:25;1.58;;;1.48;;
48805;SDS011;34625;47.176;27.548;2022-08-03T16:24:51;2.00;;;1.60;;
48805;SDS011;34625;47.176;27.548;2022-08-03T16:27:18;1.60;;;1.50;;
48805;SDS011;34625;47.176;27.548;2022-08-03T16:29:46;1.52;;;1.30;;
48805;SDS011;34625;47.176;27.548;2022-08-03T16:32:12;2.50;;;1.50;;
48805;SDS011;34625;47.176;27.548;2022-08-03T16:34:38;2.13;;;1.70;;
48805;SDS011;34625;47.176;27.548;2022-08-03T16:37:05;3.05;;;1.90;;
48805;SDS011;34625;47.176;27.548;2022-08-03T16:39:32;2.70;;;1.90;;
48805;SDS011;34625;47.176;27.548;2022-08-03T16:41:58;5.30;;;1.70;;
48805;SDS011;34625;47.176;27.548;2022-08-03T16:44:25;1.60;;;1.50;;
48805;SDS011;34625;47.176;27.548;2022-08-03T16:46:51;1.60;;;1.50;;
48805;SDS011;34625;47.176;27.548;2022-08-03T16:49:17;3.97;;;1.70;;
48805;SDS011;34625;47.176;27.548;2022-08-03T16:51:44;1.80;;;1.70;;
48805;SDS011;34625;47.176;27.548;2022-08-03T16:54:10;4.38;;;1.70;;
48805;SDS011;34625;47.176;27.548;2022-08-03T16:56:36;4.03;;;1.73;;
48805;SDS011;34625;47.176;27.548;2022-08-03T16:59:02;3.08;;;2.20;;
48805;SDS011;34625;47.176;27.548;2022-08-03T17:01:29;2.78;;;1.50;;
48805;SDS011;34625;47.176;27.548;2022-08-03T17:03:56;2.08;;;1.67;;
48805;SDS011;34625;47.176;27.548;2022-08-03T17:06:24;2.10;;;1.90;;
48805;SDS011;34625;47.176;27.548;2022-08-03T17:08:51;2.10;;;1.60;;
48805;SDS011;34625;47.176;27.548;2022-08-03T17:11:18;1.60;;;1.50;;
48805;SDS011;34625;47.176;27.548;2022-08-03T17:13:44;1.75;;;1.65;;
48805;SDS011;34625;47.176;27.548;2022-08-03T17:16:11;1.80;;;1.70;;
48805;SDS011;34625;47.176;27.548;2022-08-03T17:18:46;1.60;;;1.50;;
48805;SDS011;34625;47.176;27.548;2022-08-03T17:21:29;3.80;;;2.03;;
48805;SDS011;34625;47.176;27.548;2022-08-03T17:24:05;1.77;;;1.67;;
48805;SDS011;34625;47.176;27.548;2022-08-03T17:26:46;2.22;;;1.50;;
48805;SDS011;34625;47.176;27.548;2022-08-03T17:29:15;1.80;;;1.70;;
48805;SDS011;34625;47.176;27.548;2022-08-03T17:31:43;2.45;;;1.90;;
48805;SDS011;34625;47.176;27.548;2022-08-03T17:34:10;3.08;;;1.40;;
48805;SDS011;34625;47.176;27.548;2022-08-03T17:36:36;3.05;;;1.92;;
48805;SDS011;34625;47.176;27.548;2022-08-03T17:39:03;1.75;;;1.50;;
48805;SDS011;34625;47.176;27.548;2022-08-03T17:41:30;2.60;;;1.77;;
48805;SDS011;34625;47.176;27.548;2022-08-03T17:44:02;1.88;;;1.58;;
48805;SDS011;34625;47.176;27.548;2022-08-03T17:46:29;2.70;;;2.00;;
48805;SDS011;34625;47.176;27.548;2022-08-03T17:48:55;9.93;;;1.90;;
48805;SDS011;34625;47.176;27.548;2022-08-03T17:51:22;1.83;;;1.70;;
48805;SDS011;34625;47.176;27.548;2022-08-03T17:54:15;3.15;;;1.85;;
48805;SDS011;34625;47.176;27.548;2022-08-03T18:05:19;2.43;;;1.97;;
48805;SDS011;34625;47.176;27.548;2022-08-03T18:07:49;3.75;;;1.90;;
48805;SDS011;34625;47.176;27.548;2022-08-03T18:10:20;3.55;;;1.77;;
48805;SDS011;34625;47.176;27.548;2022-08-03T18:12:49;5.40;;;1.75;;
48805;SDS011;34625;47.176;27.548;2022-08-03T18:15:28;2.35;;;1.80;;
48805;SDS011;34625;47.176;27.548;2022-08-03T18:18:02;2.50;;;1.55;;
48805;SDS011;34625;47.176;27.548;2022-08-03T18:20:30;2.13;;;1.90;;
48805;SDS011;34625;47.176;27.548;2022-08-03T18:22:58;3.15;;;1.92;;
48805;SDS011;34625;47.176;27.548;2022-08-03T18:25:25;1.95;;;1.80;;
48805;SDS011;34625;47.176;27.548;2022-08-03T18:27:52;3.25;;;1.73;;
48805;SDS011;34625;47.176;27.548;2022-08-03T18:30:18;2.55;;;2.28;;
48805;SDS011;34625;47.176;27.548;2022-08-03T18:32:45;4.43;;;2.28;;
48805;SDS011;34625;47.176;27.548;2022-08-03T18:35:11;1.60;;;1.50;;
48805;SDS011;34625;47.176;27.548;2022-08-03T18:37:37;3.53;;;2.00;;
48805;SDS011;34625;47.176;27.548;2022-08-03T18:40:05;3.15;;;1.77;;
48805;SDS011;34625;47.176;27.548;2022-08-03T18:42:31;5.07;;;2.17;;
48805;SDS011;34625;47.176;27.548;2022-08-03T18:44:57;1.98;;;1.85;;
48805;SDS011;34625;47.176;27.548;2022-08-03T18:47:33;2.95;;;2.20;;
48805;SDS011;34625;47.176;27.548;2022-08-03T18:55:33;3.67;;;2.05;;
48805;SDS011;34625;47.176;27.548;2022-08-03T19:00:40;5.68;;;2.05;;
48805;SDS011;34625;47.176;27.548;2022-08-03T19:03:15;5.95;;;1.70;;
48805;SDS011;34625;47.176;27.548;2022-08-03T19:05:58;2.15;;;1.65;;
48805;SDS011;34625;47.176;27.548;2022-08-03T19:11:08;1.83;;;1.67;;
48805;SDS011;34625;47.176;27.548;2022-08-03T19:13:46;1.58;;;1.48;;
48805;SDS011;34625;47.176;27.548;2022-08-03T19:16:36;2.92;;;2.00;;
48805;SDS011;34625;47.176;27.548;2022-08-03T19:19:02;3.83;;;1.63;;
48805;SDS011;34625;47.176;27.548;2022-08-03T19:21:33;1.80;;;1.70;;
48805;SDS011;34625;47.176;27.548;2022-08-03T19:24:00;2.05;;;1.63;;
48805;SDS011;34625;47.176;27.548;2022-08-03T19:26:28;3.42;;;1.90;;
48805;SDS011;34625;47.176;27.548;2022-08-03T19:28:55;2.70;;;1.63;;
48805;SDS011;34625;47.176;27.548;2022-08-03T19:31:22;4.03;;;1.50;;
48805;SDS011;34625;47.176;27.548;2022-08-03T19:33:50;2.22;;;1.67;;
48805;SDS011;34625;47.176;27.548;2022-08-03T19:36:18;2.47;;;1.83;;
48805;SDS011;34625;47.176;27.548;2022-08-03T19:38:45;2.13;;;1.88;;
48805;SDS011;34625;47.176;27.548;2022-08-03T19:41:12;2.22;;;1.90;;
48805;SDS011;34625;47.176;27.548;2022-08-03T19:43:46;8.68;;;1.60;;
48805;SDS011;34625;47.176;27.548;2022-08-03T19:46:18;2.90;;;1.60;;
48805;SDS011;34625;47.176;27.548;2022-08-03T19:51:39;1.90;;;1.73;;
48805;SDS011;34625;47.176;27.548;2022-08-03T19:54:07;2.17;;;1.63;;
48805;SDS011;34625;47.176;27.548;2022-08-03T19:56:41;2.60;;;1.90;;
48805;SDS011;34625;47.176;27.548;2022-08-03T19:59:11;3.50;;;1.90;;
48805;SDS011;34625;47.176;27.548;2022-08-03T20:01:39;3.10;;;2.15;;
48805;SDS011;34625;47.176;27.548;2022-08-03T20:04:08;1.80;;;1.70;;
48805;SDS011;34625;47.176;27.548;2022-08-03T20:06:36;5.10;;;2.00;;
48805;SDS011;34625;47.176;27.548;2022-08-03T20:09:03;1.77;;;1.67;;
48805;SDS011;34625;47.176;27.548;2022-08-03T20:11:29;1.80;;;1.70;;
48805;SDS011;34625;47.176;27.548;2022-08-03T20:13:57;4.88;;;1.77;;
48805;SDS011;34625;47.176;27.548;2022-08-03T20:16:23;1.95;;;1.85;;
48805;SDS011;34625;47.176;27.548;2022-08-03T20:18:50;2.22;;;1.95;;
48805;SDS011;34625;47.176;27.548;2022-08-03T20:21:16;2.10;;;1.90;;
48805;SDS011;34625;47.176;27.548;2022-08-03T20:23:48;3.65;;;1.77;;
48805;SDS011;34625;47.176;27.548;2022-08-03T20:26:17;2.13;;;1.73;;
48805;SDS011;34625;47.176;27.548;2022-08-03T20:28:45;3.42;;;1.90;;
48805;SDS011;34625;47.176;27.548;2022-08-03T20:31:17;3.10;;;1.48;;
48805;SDS011;34625;47.176;27.548;2022-08-03T20:33:44;3.10;;;1.90;;
48805;SDS011;34625;47.176;27.548;2022-08-03T20:36:12;2.58;;;1.92;;
48805;SDS011;34625;47.176;27.548;2022-08-03T20:38:38;2.50;;;1.92;;
48805;SDS011;34625;47.176;27.548;2022-08-03T20:41:05;1.77;;;1.63;;
48805;SDS011;34625;47.176;27.548;2022-08-03T20:43:32;2.25;;;1.73;;
48805;SDS011;34625;47.176;27.548;2022-08-03T20:45:59;2.25;;;2.05;;
48805;SDS011;34625;47.176;27.548;2022-08-03T20:48:25;2.30;;;2.10;;
48805;SDS011;34625;47.176;27.548;2022-08-03T20:50:51;2.92;;;2.17;;
48805;SDS011;34625;47.176;27.548;2022-08-03T20:53:19;1.90;;;1.80;;
48805;SDS011;34625;47.176;27.548;2022-08-03T20:55:45;1.92;;;1.80;;
48805;SDS011;34625;47.176;27.548;2022-08-03T20:58:12;2.67;;;2.47;;
48805;SDS011;34625;47.176;27.548;2022-08-03T21:00:41;6.97;;;2.25;;
48805;SDS011;34625;47.176;27.548;2022-08-03T21:03:07;3.72;;;2.00;;
48805;SDS011;34625;47.176;27.548;2022-08-03T21:05:33;2.28;;;2.15;;
48805;SDS011;34625;47.176;27.548;2022-08-03T21:08:05;1.83;;;1.73;;
48805;SDS011;34625;47.176;27.548;2022-08-03T21:10:35;3.03;;;2.10;;
48805;SDS011;34625;47.176;27.548;2022-08-03T21:13:14;4.95;;;2.28;;
48805;SDS011;34625;47.176;27.548;2022-08-03T21:15:47;6.25;;;2.10;;
48805;SDS011;34625;47.176;27.548;2022-08-03T21:18:16;2.83;;;1.90;;
48805;SDS011;34625;47.176;27.548;2022-08-03T21:20:43;3.55;;;2.05;;
48805;SDS011;34625;47.176;27.548;2022-08-03T21:23:11;3.40;;;1.88;;
48805;SDS011;34625;47.176;27.548;2022-08-03T21:25:40;1.77;;;1.52;;
48805;SDS011;34625;47.176;27.548;2022-08-03T21:28:07;2.17;;;1.88;;
48805;SDS011;34625;47.176;27.548;2022-08-03T21:30:34;2.47;;;1.98;;
48805;SDS011;34625;47.176;27.548;2022-08-03T21:33:01;2.95;;;1.90;;
48805;SDS011;34625;47.176;27.548;2022-08-03T21:35:30;3.03;;;2.10;;
48805;SDS011;34625;47.176;27.548;2022-08-03T21:37:58;2.80;;;1.85;;
48805;SDS011;34625;47.176;27.548;2022-08-03T21:40:43;2.70;;;2.10;;
48805;SDS011;34625;47.176;27.548;2022-08-03T21:43:10;2.55;;;2.30;;
48805;SDS011;34625;47.176;27.548;2022-08-03T21:45:58;2.47;;;2.28;;
48805;SDS011;34625;47.176;27.548;2022-08-03T21:48:25;3.13;;;2.42;;
48805;SDS011;34625;47.176;27.548;2022-08-03T21:50:53;4.85;;;2.67;;
48805;SDS011;34625;47.176;27.548;2022-08-03T21:53:19;7.20;;;2.47;;
48805;SDS011;34625;47.176;27.548;2022-08-03T21:55:57;4.90;;;2.88;;
48805;SDS011;34625;47.176;27.548;2022-08-03T21:58:31;4.90;;;1.83;;
48805;SDS011;34625;47.176;27.548;2022-08-03T22:01:05;3.20;;;2.28;;
48805;SDS011;34625;47.176;27.548;2022-08-03T22:03:33;5.97;;;1.92;;
48805;SDS011;34625;47.176;27.548;2022-08-03T22:06:01;4.18;;;2.08;;
48805;SDS011;34625;47.176;27.548;2022-08-03T22:08:27;3.13;;;2.50;;
48805;SDS011;34625;47.176;27.548;2022-08-03T22:10:54;2.55;;;2.35;;
48805;SDS011;34625;47.176;27.548;2022-08-03T22:13:20;2.72;;;2.53;;
48805;SDS011;34625;47.176;27.548;2022-08-03T22:15:46;3.58;;;2.60;;
48805;SDS011;34625;47.176;27.548;2022-08-03T22:18:13;3.67;;;2.17;;
48805;SDS011;34625;47.176;27.548;2022-08-03T22:20:40;1.88;;;1.77;;
48805;SDS011;34625;47.176;27.548;2022-08-03T22:23:07;2.60;;;2.20;;
48805;SDS011;34625;47.176;27.548;2022-08-03T22:25:35;5.22;;;2.63;;
48805;SDS011;34625;47.176;27.548;2022-08-03T22:28:06;2.30;;;2.10;;
48805;SDS011;34625;47.176;27.548;2022-08-03T22:30:33;7.65;;;3.05;;
48805;SDS011;34625;47.176;27.548;2022-08-03T22:33:00;2.72;;;2.50;;
48805;SDS011;34625;47.176;27.548;2022-08-03T22:35:28;2.70;;;2.50;;
48805;SDS011;34625;47.176;27.548;2022-08-03T22:37:57;3.88;;;2.67;;
48805;SDS011;34625;47.176;27.548;2022-08-03T22:40:24;5.80;;;2.70;;
48805;SDS011;34625;47.176;27.548;2022-08-03T22:42:52;3.08;;;2.50;;
48805;SDS011;34625;47.176;27.548;2022-08-03T22:45:18;3.13;;;2.72;;
48805;SDS011;34625;47.176;27.548;2022-08-03T22:47:44;3.50;;;2.63;;
48805;SDS011;34625;47.176;27.548;2022-08-03T22:50:13;3.97;;;2.72;;
48805;SDS011;34625;47.176;27.548;2022-08-03T22:52:40;6.32;;;2.55;;
48805;SDS011;34625;47.176;27.548;2022-08-03T22:55:12;2.92;;;2.40;;
48805;SDS011;34625;47.176;27.548;2022-08-03T22:57:39;4.03;;;2.60;;
48805;SDS011;34625;47.176;27.548;2022-08-03T23:00:07;5.15;;;2.85;;
48805;SDS011;34625;47.176;27.548;2022-08-03T23:02:37;6.78;;;2.70;;
48805;SDS011;34625;47.176;27.548;2022-08-03T23:05:07;3.72;;;2.60;;
48805;SDS011;34625;47.176;27.548;2022-08-03T23:07:38;5.57;;;3.13;;
48805;SDS011;34625;47.176;27.548;2022-08-03T23:10:09;2.78;;;2.17;;
48805;SDS011;34625;47.176;27.548;2022-08-03T23:12:38;3.15;;;2.60;;
48805;SDS011;34625;47.176;27.548;2022-08-03T23:15:06;2.70;;;2.50;;
48805;SDS011;34625;47.176;27.548;2022-08-03T23:17:36;7.45;;;2.55;;
48805;SDS011;34625;47.176;27.548;2022-08-03T23:20:24;3.90;;;2.53;;
48805;SDS011;34625;47.176;27.548;2022-08-03T23:22:50;2.35;;;2.15;;
48805;SDS011;34625;47.176;27.548;2022-08-03T23:25:18;6.93;;;2.80;;
48805;SDS011;34625;47.176;27.548;2022-08-03T23:27:46;3.60;;;2.50;;
48805;SDS011;34625;47.176;27.548;2022-08-03T23:30:14;3.85;;;2.42;;
48805;SDS011;34625;47.176;27.548;2022-08-03T23:32:41;5.05;;;2.95;;
48805;SDS011;34625;47.176;27.548;2022-08-03T23:35:09;3.75;;;2.47;;
48805;SDS011;34625;47.176;27.548;2022-08-03T23:37:53;2.72;;;2.25;;
48805;SDS011;34625;47.176;27.548;2022-08-03T23:40:25;3.55;;;2.78;;
48805;SDS011;34625;47.176;27.548;2022-08-03T23:42:56;3.85;;;2.63;;
48805;SDS011;34625;47.176;27.548;2022-08-03T23:45:23;2.55;;;2.35;;
48805;SDS011;34625;47.176;27.548;2022-08-03T23:47:51;4.18;;;2.55;;
48805;SDS011;34625;47.176;27.548;2022-08-03T23:50:17;2.50;;;2.30;;
48805;SDS011;34625;47.176;27.548;2022-08-03T23:58:22;3.65;;;2.58;;
